Time;durP1;ratioP1;P1;durP2;ratioP2;P2;SDS_P1;SDS_P2;PMS_P1;PMS_P2;Temp;Humidity;BMP_temperature;BMP_pressure;BME280_temperature;BME280_humidity;BME280_pressure;Samples;Min_cycle;Max_cycle;Signal;HPM_P1;HPM_P2
2023/04/22 00:01:51;;;;;;;61.10;26.70;;;;;;;6.44;71.62;98438.55;105208;1265;99263;-64
2023/04/22 00:04:19;;;;;;;67.70;28.40;;;;;;;6.38;71.85;98439.12;105212;1266;98009;-64
2023/04/22 00:06:47;;;;;;;57.60;28.40;;;;;;;6.34;72.20;98439.29;104801;1270;108208;-65
2023/04/22 00:09:14;;;;;;;65.60;28.40;;;;;;;6.33;72.04;98436.63;105191;1267;97954;-65
2023/04/22 00:11:41;;;;;;;64.10;29.60;;;;;;;6.28;72.08;98437.23;105218;1266;98547;-65
2023/04/22 00:14:08;;;;;;;67.90;28.70;;;;;;;6.17;72.83;98436.05;105134;1266;97995;-64
2023/04/22 00:16:35;;;;;;;65.40;28.80;;;;;;;6.06;73.16;98435.08;105202;1258;98327;-64
2023/04/22 00:19:04;;;;;;;60.80;27.30;;;;;;;6.01;72.99;98435.77;105109;1259;97990;-64
2023/04/22 00:21:31;;;;;;;59.00;27.20;;;;;;;5.98;73.15;98433.29;105080;1267;99057;-64
2023/04/22 00:23:58;;;;;;;57.00;26.10;;;;;;;5.97;73.35;98432.59;105178;1254;98049;-65
2023/04/22 00:26:26;;;;;;;55.10;23.80;;;;;;;5.98;73.20;98432.04;105205;1256;98806;-65
2023/04/22 00:28:53;;;;;;;47.90;22.60;;;;;;;5.98;72.99;98430.09;105230;1257;97905;-64
2023/04/22 00:31:20;;;;;;;36.80;20.20;;;;;;;5.93;73.03;98429.96;104973;1267;97916;-64
2023/04/22 00:33:47;;;;;;;34.20;17.40;;;;;;;5.86;73.35;98431.79;105058;1266;99183;-67
2023/04/22 00:36:14;;;;;;;40.30;18.80;;;;;;;5.78;73.31;98433.33;105048;1258;97907;-66
2023/04/22 00:38:47;;;;;;;47.10;20.70;;;;;;;5.76;73.29;98431.66;105619;1254;97920;-65
2023/04/22 00:41:15;;;;;;;86.80;31.20;;;;;;;5.74;73.54;98431.36;105254;1257;108605;-65
2023/04/22 00:43:42;;;;;;;42.30;19.70;;;;;;;5.68;74.33;98432.83;105173;1266;97991;-64
2023/04/22 00:46:09;;;;;;;35.00;18.00;;;;;;;5.54;74.58;98429.69;105145;1257;99120;-64
2023/04/22 00:48:37;;;;;;;39.20;19.20;;;;;;;5.47;74.60;98428.51;105025;1256;112243;-65
2023/04/22 00:51:05;;;;;;;44.30;19.10;;;;;;;5.40;74.77;98431.84;104702;1273;97829;-65
2023/04/22 00:53:31;;;;;;;38.60;19.10;;;;;;;5.36;74.93;98430.77;105002;1267;97906;-66
2023/04/22 00:55:59;;;;;;;37.70;18.90;;;;;;;5.31;74.96;98430.88;105091;1260;99148;-65
2023/04/22 00:58:28;;;;;;;42.90;19.40;;;;;;;5.29;75.04;98428.73;104934;1262;99310;-65
2023/04/22 01:00:57;;;;;;;38.60;19.80;;;;;;;5.28;75.24;98430.25;104921;1271;111362;-65
2023/04/22 01:03:27;;;;;;;39.70;20.60;;;;;;;5.25;75.68;98434.23;105282;1256;99579;-65
2023/04/22 01:05:55;;;;;;;36.00;18.80;;;;;;;5.23;75.85;98432.20;105233;1267;108594;-65
2023/04/22 01:08:30;;;;;;;39.60;17.90;;;;;;;5.19;76.09;98429.29;104954;1273;98000;-65
2023/04/22 01:10:58;;;;;;;38.60;19.00;;;;;;;5.19;75.98;98430.64;105217;1260;97838;-66
2023/04/22 01:13:25;;;;;;;41.40;19.30;;;;;;;5.23;76.00;98434.75;105097;1266;112249;-65
2023/04/22 01:15:52;;;;;;;37.00;19.80;;;;;;;5.24;75.78;98434.23;105184;1257;97895;-65
2023/04/22 01:18:19;;;;;;;44.50;19.90;;;;;;;5.24;75.74;98433.98;105066;1258;99217;-66
2023/04/22 01:20:46;;;;;;;38.90;20.30;;;;;;;5.20;75.65;98437.52;105053;1267;98487;-65
2023/04/22 01:23:18;;;;;;;37.60;19.30;;;;;;;5.12;75.79;98434.88;105261;1266;97941;-64
2023/04/22 01:25:46;;;;;;;39.70;18.30;;;;;;;5.04;76.15;98435.21;104806;1261;111149;-66
2023/04/22 01:28:14;;;;;;;41.20;18.00;;;;;;;4.96;76.21;98437.21;104918;1271;99173;-65
2023/04/22 01:30:43;;;;;;;35.40;19.00;;;;;;;4.87;76.28;98438.03;105208;1257;105570;-65
2023/04/22 01:33:11;;;;;;;67.50;28.30;;;;;;;4.83;76.31;98436.25;105255;1257;97876;-66
2023/04/22 01:35:40;;;;;;;60.90;27.90;;;;;;;4.82;76.70;98439.74;104923;1270;97948;-66
2023/04/22 01:38:08;;;;;;;47.30;24.40;;;;;;;4.82;76.77;98437.73;105234;1258;112389;-64
2023/04/22 01:40:37;;;;;;;52.70;25.20;;;;;;;4.80;76.68;98436.83;105340;1259;99299;-65
2023/04/22 01:43:05;;;;;;;50.00;23.90;;;;;;;4.77;76.74;98438.31;104897;1261;108026;-65
2023/04/22 01:45:32;;;;;;;54.70;22.40;;;;;;;4.80;76.74;98439.33;105232;1266;97947;-65
2023/04/22 01:47:59;;;;;;;48.20;21.60;;;;;;;4.80;76.78;98439.48;105101;1258;98386;-65
2023/04/22 01:50:27;;;;;;;44.10;19.50;;;;;;;4.78;76.89;98441.40;105001;1267;97909;-64
2023/04/22 01:52:54;;;;;;;42.00;20.40;;;;;;;4.74;76.96;98440.06;105021;1263;97957;-65
2023/04/22 01:55:21;;;;;;;40.20;19.70;;;;;;;4.72;77.07;98440.52;105021;1267;97903;-65
2023/04/22 01:57:48;;;;;;;39.60;22.10;;;;;;;4.64;77.17;98441.47;105138;1257;98000;-65
2023/04/22 02:00:16;;;;;;;48.00;22.20;;;;;;;4.61;77.71;98440.08;105191;1267;97878;-65
2023/04/22 02:02:43;;;;;;;46.90;23.00;;;;;;;4.55;77.69;98443.30;105255;1255;99568;-65
2023/04/22 02:05:10;;;;;;;37.60;20.30;;;;;;;4.48;77.67;98445.02;105304;1256;97905;-65
2023/04/22 02:07:37;;;;;;;43.10;19.80;;;;;;;4.40;77.72;98449.02;105252;1264;97957;-64
2023/04/22 02:10:05;;;;;;;68.90;27.70;;;;;;;4.36;77.99;98447.57;105312;1261;97838;-64
2023/04/22 02:12:32;;;;;;;55.90;26.10;;;;;;;4.35;78.31;98445.69;105299;1254;98789;-65
2023/04/22 02:15:00;;;;;;;57.90;25.70;;;;;;;4.35;78.17;98446.94;105036;1267;97993;-64
2023/04/22 02:17:27;;;;;;;50.50;25.00;;;;;;;4.37;78.45;98445.23;105169;1256;97903;-64
2023/04/22 02:19:54;;;;;;;52.20;25.60;;;;;;;4.40;78.33;98445.06;104984;1275;97931;-64
2023/04/22 02:22:22;;;;;;;48.40;22.20;;;;;;;4.43;78.23;98443.85;105182;1260;97997;-64
2023/04/22 02:24:49;;;;;;;47.40;22.50;;;;;;;4.47;78.28;98442.64;105248;1254;98396;-64
2023/04/22 02:27:16;;;;;;;42.00;21.40;;;;;;;4.49;78.07;98444.27;105244;1258;99189;-65
2023/04/22 02:29:43;;;;;;;46.20;21.20;;;;;;;4.49;78.18;98448.02;105218;1255;97909;-65
2023/04/22 02:32:10;;;;;;;46.10;21.80;;;;;;;4.48;78.15;98446.71;105215;1267;98792;-65
2023/04/22 02:34:38;;;;;;;47.20;22.30;;;;;;;4.46;78.40;98446.34;105260;1267;97890;-65
2023/04/22 02:37:04;;;;;;;45.00;24.00;;;;;;;4.43;78.54;98445.21;105268;1267;98527;-65
2023/04/22 02:39:32;;;;;;;44.70;22.80;;;;;;;4.41;78.69;98441.77;105191;1257;99156;-65
2023/04/22 02:41:58;;;;;;;39.40;23.00;;;;;;;4.40;78.60;98437.69;105241;1266;97977;-65
2023/04/22 02:44:26;;;;;;;48.40;22.60;;;;;;;4.32;78.46;98438.64;105262;1267;97976;-65
2023/04/22 02:46:53;;;;;;;50.30;24.60;;;;;;;4.21;78.93;98436.73;105231;1257;97886;-64
2023/04/22 02:49:20;;;;;;;53.30;25.60;;;;;;;4.10;79.36;98438.77;105337;1254;97974;-65
2023/04/22 02:51:47;;;;;;;67.70;27.90;;;;;;;3.98;80.03;98435.00;105205;1257;99107;-65
2023/04/22 02:54:14;;;;;;;79.80;35.00;;;;;;;3.91;80.57;98441.70;105221;1266;97970;-64
2023/04/22 02:56:41;;;;;;;73.70;33.70;;;;;;;3.85;80.46;98442.36;105135;1266;98066;-64
2023/04/22 02:59:08;;;;;;;66.50;31.00;;;;;;;3.86;80.30;98436.30;105243;1256;98277;-63
2023/04/22 03:01:35;;;;;;;61.70;28.00;;;;;;;3.86;80.44;98436.39;105001;1260;98588;-65
2023/04/22 03:04:02;;;;;;;65.20;29.30;;;;;;;3.91;80.33;98432.97;105177;1267;97960;-65
2023/04/22 03:06:29;;;;;;;61.60;29.60;;;;;;;3.97;79.36;98432.14;105163;1267;99028;-64
2023/04/22 03:08:56;;;;;;;65.20;27.70;;;;;;;4.00;79.40;98436.09;105189;1254;97978;-64
2023/04/22 03:11:23;;;;;;;58.80;25.80;;;;;;;3.99;79.62;98435.02;105218;1266;97957;-64
2023/04/22 03:13:50;;;;;;;60.10;27.50;;;;;;;4.05;79.76;98438.89;105165;1264;97889;-64
2023/04/22 03:16:17;;;;;;;58.50;26.80;;;;;;;4.10;79.47;98437.09;104976;1254;97902;-64
2023/04/22 03:18:45;;;;;;;64.10;28.80;;;;;;;4.07;79.32;98440.63;105126;1257;98020;-65
2023/04/22 03:21:11;;;;;;;60.40;27.50;;;;;;;3.95;79.58;98441.86;105198;1256;99213;-69
2023/04/22 03:23:38;;;;;;;57.10;26.10;;;;;;;3.89;79.57;98437.90;105331;1254;97893;-65
2023/04/22 03:26:06;;;;;;;53.20;27.10;;;;;;;3.87;79.92;98436.45;104993;1261;108243;-66
2023/04/22 03:28:33;;;;;;;59.60;28.20;;;;;;;3.90;79.89;98440.40;105280;1258;97962;-65
2023/04/22 03:31:00;;;;;;;69.90;29.40;;;;;;;3.92;79.68;98437.30;105007;1267;97903;-65
2023/04/22 03:33:26;;;;;;;60.80;29.10;;;;;;;3.92;79.69;98436.55;104546;1274;99660;-65
2023/04/22 03:35:54;;;;;;;62.50;28.40;;;;;;;3.88;79.58;98429.94;104574;1274;98073;-66
2023/04/22 03:38:21;;;;;;;64.10;28.20;;;;;;;3.84;79.99;98431.63;104546;1265;99440;-65
2023/04/22 03:40:47;;;;;;;54.10;27.80;;;;;;;3.82;80.03;98437.82;104531;1266;98211;-65
2023/04/22 03:43:17;;;;;;;65.30;28.00;;;;;;;3.80;79.79;98437.82;104605;1260;97917;-65
2023/04/22 03:45:46;;;;;;;65.90;28.70;;;;;;;3.80;79.89;98439.38;104542;1264;98061;-65
2023/04/22 03:48:13;;;;;;;65.70;28.20;;;;;;;3.79;79.81;98436.03;104492;1264;99271;-65
2023/04/22 03:50:40;;;;;;;66.30;28.80;;;;;;;3.81;79.80;98437.81;104489;1282;99123;-65
2023/04/22 03:53:07;;;;;;;64.00;28.60;;;;;;;3.86;79.97;98437.70;105082;1253;97988;-65
2023/04/22 03:55:34;;;;;;;69.20;30.20;;;;;;;3.84;79.92;98438.90;105126;1257;99215;-65
2023/04/22 03:58:01;;;;;;;61.20;24.30;;;;;;;3.71;80.66;98438.80;105268;1257;98008;-65
2023/04/22 04:00:28;;;;;;;54.70;23.90;;;;;;;3.60;80.55;98436.89;105205;1265;99240;-65
2023/04/22 04:02:54;;;;;;;44.70;24.40;;;;;;;3.53;81.12;98437.96;105106;1267;97918;-66
2023/04/22 04:05:22;;;;;;;46.10;23.80;;;;;;;3.48;81.19;98439.55;105057;1257;98069;-65
2023/04/22 04:07:49;;;;;;;52.60;24.60;;;;;;;3.48;81.58;98437.55;105183;1266;97915;-65
2023/04/22 04:10:16;;;;;;;50.20;25.80;;;;;;;3.49;81.25;98436.89;105212;1257;99237;-65
2023/04/22 04:12:43;;;;;;;50.50;25.80;;;;;;;3.51;81.48;98438.56;105184;1256;98607;-65
2023/04/22 04:15:10;;;;;;;54.00;27.30;;;;;;;3.55;81.55;98442.46;105074;1258;99189;-65
2023/04/22 04:17:37;;;;;;;71.00;31.00;;;;;;;3.60;81.39;98439.15;105210;1267;97934;-65
2023/04/22 04:20:06;;;;;;;70.50;32.10;;;;;;;3.67;81.58;98441.38;105035;1253;97969;-65
2023/04/22 04:22:34;;;;;;;64.30;30.40;;;;;;;3.75;81.78;98438.27;105066;1261;99189;-66
2023/04/22 04:25:01;;;;;;;64.00;30.00;;;;;;;3.84;81.51;98440.03;105182;1257;99183;-66
2023/04/22 04:27:28;;;;;;;61.40;28.70;;;;;;;3.93;81.74;98438.34;105182;1269;97962;-65
2023/04/22 04:29:55;;;;;;;56.90;27.20;;;;;;;4.08;81.72;98438.78;105212;1257;99166;-66
2023/04/22 04:32:23;;;;;;;56.70;26.60;;;;;;;4.20;81.75;98444.70;105226;1267;98271;-65
2023/04/22 04:34:51;;;;;;;64.00;28.00;;;;;;;4.36;81.78;98446.27;105060;1253;97875;-65
2023/04/22 04:37:18;;;;;;;55.80;27.40;;;;;;;4.51;81.20;98448.05;105005;1257;97969;-65
2023/04/22 04:39:45;;;;;;;85.60;36.10;;;;;;;4.62;81.16;98444.48;104940;1270;98007;-69
2023/04/22 04:42:13;;;;;;;71.40;30.50;;;;;;;4.69;80.99;98445.09;105202;1254;97954;-66
2023/04/22 04:44:40;;;;;;;60.10;27.50;;;;;;;4.83;81.00;98446.41;105166;1258;98709;-68
2023/04/22 04:47:07;;;;;;;57.70;26.70;;;;;;;4.89;81.17;98446.92;105262;1256;98437;-65
2023/04/22 04:49:38;;;;;;;50.00;24.90;;;;;;;4.94;81.30;98446.23;105243;1256;98467;-65
2023/04/22 04:52:09;;;;;;;60.50;28.30;;;;;;;5.03;81.32;98447.16;104990;1259;98068;-66
2023/04/22 04:54:37;;;;;;;61.10;28.90;;;;;;;5.17;81.60;98453.48;104856;1261;98457;-65
2023/04/22 04:57:04;;;;;;;47.60;24.20;;;;;;;5.36;81.67;98453.94;105151;1253;112156;-65
2023/04/22 04:59:30;;;;;;;49.70;26.20;;;;;;;5.53;80.36;98451.30;105169;1257;98267;-66
2023/04/22 05:01:58;;;;;;;44.00;24.50;;;;;;;5.73;79.16;98455.09;104967;1266;98386;-65
2023/04/22 05:04:25;;;;;;;45.70;22.70;;;;;;;5.94;78.34;98456.39;105175;1256;98808;-66
2023/04/22 05:06:53;;;;;;;41.00;20.40;;;;;;;6.17;77.81;98452.48;105225;1257;97995;-66
2023/04/22 05:09:20;;;;;;;32.70;18.40;;;;;;;6.35;76.70;98448.25;105235;1256;97888;-66
2023/04/22 05:11:46;;;;;;;43.30;21.70;;;;;;;6.47;76.08;98447.98;105153;1256;99136;-66
2023/04/22 05:14:13;;;;;;;43.80;23.40;;;;;;;6.62;75.88;98454.73;105193;1267;99211;-66
2023/04/22 05:16:40;;;;;;;39.60;22.50;;;;;;;6.78;75.41;98453.42;105209;1256;99180;-68
2023/04/22 05:19:07;;;;;;;40.70;22.80;;;;;;;6.91;74.75;98449.55;105214;1256;99166;-66
2023/04/22 05:21:34;;;;;;;41.50;22.70;;;;;;;7.04;74.59;98443.15;105012;1260;99265;-65
2023/04/22 05:24:02;;;;;;;41.30;23.10;;;;;;;7.18;74.49;98446.89;105271;1256;97886;-67
2023/04/22 05:26:29;;;;;;;41.40;22.60;;;;;;;7.31;73.48;98445.88;105219;1252;97966;-66
2023/04/22 05:28:56;;;;;;;42.50;23.60;;;;;;;7.41;73.26;98446.55;105223;1254;97977;-66
2023/04/22 05:31:23;;;;;;;42.80;23.80;;;;;;;7.56;74.10;98446.56;105175;1257;97909;-66
2023/04/22 05:33:50;;;;;;;43.30;22.50;;;;;;;7.73;73.36;98450.42;105022;1257;97967;-66
2023/04/22 05:36:17;;;;;;;45.60;23.90;;;;;;;7.80;71.58;98453.37;105190;1267;97982;-66
2023/04/22 05:38:44;;;;;;;41.20;23.00;;;;;;;7.80;71.29;98453.47;105220;1256;99138;-66
2023/04/22 05:41:11;;;;;;;41.50;22.00;;;;;;;7.81;71.46;98456.73;105288;1264;97868;-66
2023/04/22 05:43:38;;;;;;;42.30;21.50;;;;;;;7.87;71.13;98456.84;105351;1256;97976;-66
2023/04/22 05:46:05;;;;;;;43.40;24.40;;;;;;;7.96;71.21;98459.73;105130;1265;108624;-65
2023/04/22 05:48:33;;;;;;;38.60;21.50;;;;;;;8.01;70.16;98460.61;105234;1258;97936;-66
2023/04/22 05:51:00;;;;;;;41.40;23.00;;;;;;;8.11;71.00;98463.83;105246;1256;97899;-65
2023/04/22 05:53:27;;;;;;;42.80;23.20;;;;;;;8.26;69.84;98466.59;105219;1266;97911;-66
2023/04/22 05:55:54;;;;;;;35.40;20.50;;;;;;;8.36;70.11;98467.70;105233;1267;99199;-65
2023/04/22 05:58:21;;;;;;;39.60;20.70;;;;;;;8.52;69.65;98463.81;105110;1257;97908;-65
2023/04/22 06:00:48;;;;;;;41.60;23.60;;;;;;;8.60;69.67;98465.95;105039;1260;97892;-65
2023/04/22 06:03:15;;;;;;;43.00;24.10;;;;;;;8.75;70.03;98465.31;105269;1267;99456;-67
2023/04/22 06:05:43;;;;;;;43.10;24.30;;;;;;;8.89;69.59;98465.73;105056;1253;98010;-71
2023/04/22 06:08:10;;;;;;;41.90;22.80;;;;;;;9.03;69.76;98466.52;105292;1257;97878;-66
2023/04/22 06:10:37;;;;;;;41.00;22.90;;;;;;;9.18;69.04;98466.50;105110;1256;97883;-67
2023/04/22 06:13:04;;;;;;;41.60;23.20;;;;;;;9.30;69.48;98463.60;105463;1256;99027;-66
2023/04/22 06:15:33;;;;;;;39.70;23.00;;;;;;;9.52;69.04;98461.20;105100;1256;112266;-66
2023/04/22 06:18:01;;;;;;;39.60;22.30;;;;;;;9.67;68.54;98464.14;104940;1260;98780;-65
2023/04/22 06:20:28;;;;;;;36.10;21.10;;;;;;;9.81;67.92;98465.48;105288;1253;108805;-65
2023/04/22 06:22:55;;;;;;;36.80;22.00;;;;;;;9.86;67.43;98465.34;105225;1257;98309;-65
2023/04/22 06:25:22;;;;;;;37.40;23.20;;;;;;;9.94;67.75;98466.84;105236;1256;97884;-66
2023/04/22 06:27:50;;;;;;;40.50;22.80;;;;;;;10.15;67.81;98467.94;105268;1267;98088;-66
2023/04/22 06:30:17;;;;;;;38.30;22.80;;;;;;;10.37;67.49;98466.55;105262;1256;97808;-66
2023/04/22 06:32:44;;;;;;;39.20;21.90;;;;;;;10.61;66.91;98471.56;105228;1267;97911;-66
2023/04/22 06:35:11;;;;;;;42.20;24.10;;;;;;;10.84;66.15;98469.25;105233;1256;97945;-66
2023/04/22 06:37:39;;;;;;;45.10;23.30;;;;;;;11.09;65.93;98467.34;105221;1253;98328;-66
2023/04/22 06:40:07;;;;;;;39.50;23.40;;;;;;;11.32;64.46;98463.34;105293;1257;98405;-66
2023/04/22 06:42:34;;;;;;;38.80;21.10;;;;;;;11.47;65.13;98468.53;105289;1257;99296;-66
2023/04/22 06:45:03;;;;;;;43.10;23.10;;;;;;;11.69;64.48;98467.36;105236;1256;99296;-65
2023/04/22 06:47:30;;;;;;;42.20;22.70;;;;;;;11.99;64.17;98472.02;104904;1260;99202;-65
2023/04/22 06:49:58;;;;;;;32.70;19.80;;;;;;;12.24;63.38;98474.06;105236;1253;99113;-66
2023/04/22 06:52:25;;;;;;;41.10;22.60;;;;;;;12.42;62.57;98472.27;105143;1265;111324;-66
2023/04/22 06:54:52;;;;;;;33.00;20.50;;;;;;;12.59;61.56;98469.26;105032;1253;99041;-66
2023/04/22 06:57:19;;;;;;;31.70;18.80;;;;;;;12.84;61.88;98469.76;105185;1254;97893;-66
2023/04/22 06:59:47;;;;;;;32.50;19.80;;;;;;;13.09;61.14;98468.70;104988;1256;252568;-66
2023/04/22 07:02:14;;;;;;;32.60;19.20;;;;;;;13.36;59.45;98469.62;105043;1256;98314;-67
2023/04/22 07:04:41;;;;;;;33.70;17.80;;;;;;;13.47;58.13;98466.92;105223;1256;97883;-67
2023/04/22 07:07:08;;;;;;;30.30;19.20;;;;;;;13.44;57.71;98468.33;105229;1256;98001;-67
2023/04/22 07:09:35;;;;;;;28.50;18.00;;;;;;;13.54;57.97;98466.52;105305;1264;97932;-66
2023/04/22 07:12:04;;;;;;;29.20;17.40;;;;;;;13.80;57.07;98474.17;105247;1256;97903;-67
2023/04/22 07:14:32;;;;;;;25.30;15.70;;;;;;;14.00;56.77;98470.30;105178;1253;98544;-66
2023/04/22 07:16:59;;;;;;;32.40;17.00;;;;;;;14.24;55.86;98469.90;105428;1267;97887;-68
2023/04/22 07:19:27;;;;;;;21.70;13.70;;;;;;;14.55;54.15;98468.52;105270;1257;97922;-66
2023/04/22 07:21:54;;;;;;;21.00;14.20;;;;;;;14.73;53.88;98469.26;105166;1257;97959;-66
2023/04/22 07:24:22;;;;;;;21.70;14.70;;;;;;;14.91;52.84;98469.42;105151;1256;98789;-67
2023/04/22 07:26:49;;;;;;;24.40;16.00;;;;;;;15.05;53.21;98469.59;105166;1256;99588;-69
2023/04/22 07:29:16;;;;;;;24.80;14.60;;;;;;;15.31;53.27;98466.47;105082;1260;111758;-68
2023/04/22 07:31:44;;;;;;;19.80;12.30;;;;;;;15.57;52.01;98468.05;105273;1258;99166;-67
2023/04/22 07:34:13;;;;;;;14.30;10.40;;;;;;;15.82;50.75;98465.46;105171;1256;108162;-66
2023/04/22 07:36:40;;;;;;;16.30;10.80;;;;;;;15.93;47.83;98467.50;105270;1256;97893;-66
2023/04/22 07:39:08;;;;;;;17.00;12.20;;;;;;;15.82;47.42;98464.45;105338;1256;98050;-67
2023/04/22 07:41:36;;;;;;;19.30;12.20;;;;;;;15.75;47.95;98469.10;105284;1257;112577;-65
2023/04/22 07:44:03;;;;;;;18.00;12.00;;;;;;;15.88;47.01;98467.30;105177;1253;98469;-67
2023/04/22 07:46:30;;;;;;;21.40;12.60;;;;;;;15.94;47.65;98470.77;104910;1259;97896;-67
2023/04/22 07:48:57;;;;;;;16.40;11.30;;;;;;;16.15;47.30;98474.32;105213;1257;97986;-67
2023/04/22 07:51:24;;;;;;;14.90;10.50;;;;;;;16.41;46.22;98467.77;105249;1256;98010;-66
2023/04/22 07:53:51;;;;;;;16.40;10.30;;;;;;;16.63;45.47;98470.34;105270;1256;97909;-67
2023/04/22 07:56:19;;;;;;;15.90;9.70;;;;;;;16.70;43.99;98469.70;105229;1256;97912;-66
2023/04/22 07:58:46;;;;;;;14.30;9.40;;;;;;;16.77;43.82;98468.15;105237;1256;97995;-66
2023/04/22 08:01:14;;;;;;;13.30;9.00;;;;;;;16.96;43.68;98467.91;105055;1256;97882;-67
2023/04/22 08:03:43;;;;;;;11.70;8.80;;;;;;;17.13;42.88;98465.92;105250;1256;99199;-67
2023/04/22 08:06:10;;;;;;;13.40;9.10;;;;;;;17.26;42.25;98467.10;104994;1259;110733;-67
2023/04/22 08:08:38;;;;;;;13.10;8.50;;;;;;;17.26;41.57;98465.25;105071;1254;98672;-66
2023/04/22 08:11:06;;;;;;;9.50;7.20;;;;;;;17.31;41.52;98465.05;105092;1258;98290;-66
2023/04/22 08:13:33;;;;;;;10.50;7.60;;;;;;;17.62;41.39;98457.26;105050;1275;97924;-67
2023/04/22 08:16:02;;;;;;;13.80;7.80;;;;;;;18.03;40.90;98459.03;105105;1256;99224;-67
2023/04/22 08:18:29;;;;;;;10.80;6.40;;;;;;;18.38;39.02;98457.66;105316;1256;112189;-66
2023/04/22 08:20:57;;;;;;;13.80;8.20;;;;;;;18.44;39.38;98456.23;105277;1253;97900;-66
2023/04/22 08:23:25;;;;;;;11.10;8.00;;;;;;;18.80;39.26;98454.63;105055;1260;97945;-66
2023/04/22 08:25:52;;;;;;;11.30;8.30;;;;;;;19.12;38.85;98453.58;104895;1261;98079;-66
2023/04/22 08:28:20;;;;;;;12.10;8.50;;;;;;;19.23;38.99;98454.20;105245;1256;97971;-66
2023/04/22 08:30:47;;;;;;;12.70;8.30;;;;;;;19.46;39.07;98455.34;105135;1267;97878;-66
2023/04/22 08:33:15;;;;;;;12.70;8.40;;;;;;;19.92;39.05;98449.23;105156;1256;98309;-66
2023/04/22 08:35:42;;;;;;;11.90;7.40;;;;;;;20.35;37.10;98444.63;104935;1261;107505;-66
2023/04/22 08:38:09;;;;;;;10.30;7.10;;;;;;;20.59;35.64;98449.50;105162;1253;97972;-67
2023/04/22 08:40:41;;;;;;;10.80;7.00;;;;;;;20.70;35.70;98443.37;105096;1256;98005;-67
2023/04/22 08:43:08;;;;;;;9.20;6.50;;;;;;;20.94;34.63;98438.67;104808;1261;110653;-66
2023/04/22 08:45:38;;;;;;;11.10;6.80;;;;;;;21.05;33.14;98442.48;105198;1256;99150;-69
2023/04/22 08:48:10;;;;;;;10.90;6.80;;;;;;;21.14;33.51;98439.40;105149;1256;108098;-68
2023/04/22 08:50:40;;;;;;;8.60;6.40;;;;;;;21.07;33.62;98441.85;105241;1256;97962;-68
2023/04/22 08:53:07;;;;;;;8.20;6.00;;;;;;;21.34;33.97;98436.39;104983;1261;99123;-67
2023/04/22 08:55:35;;;;;;;10.30;6.40;;;;;;;21.39;31.28;98440.87;105266;1269;97899;-66
2023/04/22 08:58:04;;;;;;;12.50;6.60;;;;;;;21.36;32.75;98435.60;105245;1256;97912;-67
2023/04/22 09:00:33;;;;;;;6.50;5.20;;;;;;;21.77;32.84;98438.75;105276;1254;108818;-68
2023/04/22 09:03:02;;;;;;;9.10;5.40;;;;;;;22.14;31.88;98436.02;104936;1261;97978;-67
2023/04/22 09:05:33;;;;;;;6.70;4.90;;;;;;;22.37;29.68;98432.20;105288;1253;99070;-67
2023/04/22 09:08:01;;;;;;;7.60;4.80;;;;;;;22.32;29.05;98429.89;105252;1256;112092;-67
2023/04/22 09:10:29;;;;;;;8.60;5.90;;;;;;;22.22;29.75;98432.75;104962;1253;98009;-64
2023/04/22 09:13:02;;;;;;;7.00;5.40;;;;;;;22.04;29.17;98433.30;104992;1258;108759;-65
2023/04/22 09:15:29;;;;;;;7.30;5.60;;;;;;;22.07;29.83;98433.06;104833;1262;99239;-64
2023/04/22 09:17:57;;;;;;;7.40;6.10;;;;;;;22.37;29.38;98429.14;105005;1256;99218;-64
2023/04/22 09:20:26;;;;;;;6.50;4.80;;;;;;;22.57;28.42;98429.71;105164;1256;112189;-65
2023/04/22 09:22:55;;;;;;;6.00;4.50;;;;;;;22.80;28.71;98434.86;105220;1256;99575;-65
2023/04/22 09:25:26;;;;;;;7.30;5.80;;;;;;;23.03;28.26;98433.91;105273;1266;107578;-64
2023/04/22 09:27:56;;;;;;;;;;;;;;;23.26;28.14;98430.97;105191;1256;99075;-65
2023/04/22 09:30:30;;;;;;;6.60;5.00;;;;;;;23.16;26.86;98430.93;105273;1253;99075;-65
2023/04/22 09:32:59;;;;;;;6.70;4.90;;;;;;;22.60;27.18;98427.23;104833;1261;111224;-68
2023/04/22 09:35:31;;;;;;;8.20;5.60;;;;;;;22.60;27.93;98425.48;105274;1257;99272;-64
2023/04/22 09:38:00;;;;;;;7.40;4.90;;;;;;;22.70;27.83;98420.20;105253;1257;108913;-64
2023/04/22 09:40:29;;;;;;;6.20;4.60;;;;;;;23.16;27.25;98418.55;105155;1254;98691;-64
2023/04/22 09:43:00;;;;;;;5.60;3.50;;;;;;;23.43;26.60;98421.00;105249;1257;97949;-64
2023/04/22 09:45:35;;;;;;;6.30;3.50;;;;;;;23.21;26.16;98416.70;105257;1253;112582;-65
2023/04/22 09:48:08;;;;;;;5.30;3.70;;;;;;;23.53;26.95;98416.48;105132;1261;98783;-64
2023/04/22 09:50:37;;;;;;;4.60;3.60;;;;;;;24.01;25.46;98413.77;105165;1267;108761;-64
2023/04/22 09:53:06;;;;;;;5.10;3.50;;;;;;;23.99;24.82;98412.11;104923;1260;98056;-63
2023/04/22 09:55:43;;;;;;;4.30;3.40;;;;;;;23.96;24.94;98412.20;104890;1259;98000;-63
2023/04/22 09:58:16;;;;;;;3.90;3.50;;;;;;;24.01;23.96;98407.70;104814;1253;111978;-66
2023/04/22 10:00:50;;;;;;;4.70;3.40;;;;;;;23.99;24.82;98400.83;104978;1259;98303;-64
2023/04/22 10:03:18;;;;;;;5.50;3.70;;;;;;;24.29;24.97;98397.98;105051;1259;107279;-64
2023/04/22 10:05:46;;;;;;;5.80;3.90;;;;;;;24.58;24.23;98403.15;105111;1256;97992;-64
2023/04/22 10:08:14;;;;;;;4.30;3.60;;;;;;;24.80;24.90;98399.79;105227;1256;97874;-68
2023/04/22 10:10:42;;;;;;;3.90;3.50;;;;;;;24.46;23.39;98402.60;104944;1259;111501;-66
2023/04/22 10:13:09;;;;;;;4.70;3.40;;;;;;;24.10;23.69;98405.08;105035;1252;98071;-64
2023/04/22 10:15:43;;;;;;;4.00;3.60;;;;;;;23.69;23.26;98406.48;105345;1268;98438;-64
2023/04/22 10:18:13;;;;;;;4.30;3.20;;;;;;;23.85;24.49;98399.81;104982;1261;99123;-64
2023/04/22 10:20:42;;;;;;;6.50;3.70;;;;;;;24.43;23.83;98399.05;105234;1256;97928;-64
2023/04/22 10:23:17;;;;;;;5.50;3.50;;;;;;;24.71;23.64;98398.36;104914;1260;110966;-64
2023/04/22 10:25:50;;;;;;;4.50;3.60;;;;;;;25.01;23.97;98389.08;104992;1254;99272;-64
2023/04/22 10:28:19;;;;;;;4.20;3.50;;;;;;;25.16;24.30;98386.48;105281;1256;108506;-64
2023/04/22 10:30:46;;;;;;;5.50;4.40;;;;;;;25.65;25.67;98380.78;105235;1267;97804;-64
2023/04/22 10:33:19;;;;;;;7.20;3.50;;;;;;;25.52;22.36;98384.27;105239;1256;97983;-64
2023/04/22 10:36:08;;;;;;;6.40;3.30;;;;;;;24.89;22.57;98383.69;105116;1256;112267;-64
2023/04/22 10:38:40;;;;;;;5.10;3.50;;;;;;;24.62;22.48;98388.61;104920;1260;99605;-64
2023/04/22 10:41:22;;;;;;;3.80;3.40;;;;;;;24.81;23.08;98382.65;105191;1257;108337;-64
2023/04/22 10:44:00;;;;;;;4.10;3.30;;;;;;;25.59;22.44;98378.96;105208;1258;97870;-64
2023/04/22 10:46:34;;;;;;;4.20;3.20;;;;;;;26.19;22.35;98374.02;105080;1254;97921;-64
2023/04/22 10:49:12;;;;;;;4.80;2.80;;;;;;;26.73;21.46;98373.55;105256;1256;112220;-64
2023/04/22 10:51:40;;;;;;;3.50;3.00;;;;;;;26.33;21.24;98378.27;105133;1256;99206;-65
2023/04/22 10:54:27;;;;;;;5.50;3.30;;;;;;;26.61;22.25;98372.00;105089;1256;108279;-65
2023/04/22 10:57:09;;;;;;;3.80;3.10;;;;;;;26.88;21.32;98369.96;105047;1254;97992;-64
2023/04/22 10:59:54;;;;;;;5.30;3.30;;;;;;;26.54;21.11;98369.02;105126;1256;99209;-64
2023/04/22 11:02:23;;;;;;;3.10;2.80;;;;;;;26.80;21.21;98368.91;105040;1260;111164;-64
2023/04/22 11:04:53;;;;;;;3.10;2.80;;;;;;;26.85;20.06;98370.18;105249;1257;98870;-65
2023/04/22 11:07:26;;;;;;;3.20;2.90;;;;;;;26.50;19.87;98363.20;105212;1254;108655;-65
2023/04/22 11:10:06;;;;;;;4.00;2.70;;;;;;;26.25;20.73;98361.96;105112;1264;97987;-64
2023/04/22 11:12:43;;;;;;;3.30;3.00;;;;;;;26.55;21.18;98357.52;105269;1253;99081;-65
2023/04/22 11:15:16;;;;;;;5.80;3.40;;;;;;;26.97;20.82;98362.00;104948;1254;111241;-64
2023/04/22 11:17:45;;;;;;;6.80;3.20;;;;;;;27.40;20.75;98360.77;105461;1256;98637;-65
2023/04/22 11:20:17;;;;;;;3.90;3.40;;;;;;;27.70;21.43;98362.52;105050;1254;108990;-64
2023/04/22 11:22:51;;;;;;;4.40;3.20;;;;;;;28.01;21.55;98353.50;105170;1253;97971;-65